createdAt,value
2023-04-26T00:00:00.699Z,9.8
2023-04-26T00:01:01.976Z,9.8
2023-04-26T00:02:00.641Z,9.8
2023-04-26T00:03:00.785Z,11.7
2023-04-26T00:04:00.833Z,11.7
2023-04-26T00:05:00.843Z,11.7
2023-04-26T00:06:00.601Z,11.7
2023-04-26T00:07:00.639Z,11.7
2023-04-26T00:08:00.615Z,10.9
2023-04-26T00:09:00.634Z,10.9
2023-04-26T00:10:00.625Z,10.9
2023-04-26T00:11:00.737Z,10.9
2023-04-26T00:12:00.660Z,10.9
2023-04-26T00:13:00.621Z,10.7
2023-04-26T00:14:00.620Z,10.7
2023-04-26T00:15:00.897Z,10.7
2023-04-26T00:16:00.726Z,10.7
2023-04-26T00:17:00.594Z,10.7
2023-04-26T00:18:00.669Z,14.1
2023-04-26T00:19:00.621Z,14.1
2023-04-26T00:20:01.036Z,14.1
2023-04-26T00:21:00.635Z,14.1
2023-04-26T00:22:00.696Z,14.1
2023-04-26T00:23:00.742Z,11.4
2023-04-26T00:24:00.629Z,11.4
2023-04-26T00:25:00.731Z,11.4
2023-04-26T00:26:00.649Z,11.4
2023-04-26T00:27:00.732Z,11.4
2023-04-26T00:28:00.730Z,10.2
2023-04-26T00:29:01.492Z,10.2
2023-04-26T00:30:00.780Z,10.2
2023-04-26T00:31:00.675Z,10.2
2023-04-26T00:32:00.754Z,10.2
2023-04-26T00:33:00.721Z,14.7
2023-04-26T00:34:00.840Z,14.7
2023-04-26T00:35:02.870Z,14.7
2023-04-26T00:36:00.622Z,14.7
2023-04-26T00:37:01.324Z,14.7
2023-04-26T00:38:00.614Z,11.5
2023-04-26T00:39:00.637Z,11.5
2023-04-26T00:40:00.649Z,11.5
2023-04-26T00:41:00.815Z,11.5
2023-04-26T00:42:00.666Z,11.5
2023-04-26T00:43:02.296Z,15.5
2023-04-26T00:44:00.724Z,15.5
2023-04-26T00:45:00.858Z,15.5
2023-04-26T00:46:00.675Z,15.5
2023-04-26T00:47:00.783Z,15.5
2023-04-26T00:48:01.960Z,15.4
2023-04-26T00:49:01.359Z,15.4
2023-04-26T00:50:00.676Z,15.4
2023-04-26T00:51:00.871Z,15.4
2023-04-26T00:52:01.314Z,15.4
2023-04-26T00:53:01.806Z,12.6
2023-04-26T00:54:00.711Z,12.6
2023-04-26T00:55:01.460Z,12.6
2023-04-26T00:56:00.956Z,12.6
2023-04-26T00:57:01.256Z,12.6
2023-04-26T00:58:00.646Z,11.1
2023-04-26T00:59:01.876Z,11.1
2023-04-26T01:00:00.752Z,11.1
2023-04-26T01:01:00.628Z,11.1
2023-04-26T01:02:02.500Z,11.1
2023-04-26T01:03:00.906Z,14.3
2023-04-26T01:04:01.569Z,14.3
2023-04-26T01:05:00.677Z,14.3
2023-04-26T01:06:00.740Z,14.3
2023-04-26T01:07:00.956Z,14.3
2023-04-26T01:08:01.026Z,12.3
2023-04-26T01:09:02.828Z,12.3
2023-04-26T01:10:00.946Z,12.3
2023-04-26T01:11:00.730Z,12.3
2023-04-26T01:12:01.458Z,12.3
2023-04-26T01:13:01.766Z,14.1
2023-04-26T01:14:01.923Z,14.1
2023-04-26T01:15:02.383Z,14.1
2023-04-26T01:16:01.410Z,14.1
2023-04-26T01:17:01.618Z,14.1
2023-04-26T01:18:00.752Z,12.8
2023-04-26T01:19:10.699Z,12.8
2023-04-26T01:20:00.629Z,12.8
2023-04-26T01:21:02.151Z,12.8
2023-04-26T01:22:00.615Z,12.8
2023-04-26T01:23:00.649Z,12.4
2023-04-26T01:24:00.657Z,12.4
2023-04-26T01:25:03.243Z,12.4
2023-04-26T01:26:00.612Z,12.4
2023-04-26T01:27:00.684Z,12.4
2023-04-26T01:28:00.619Z,10.2
2023-04-26T01:29:00.648Z,10.2
2023-04-26T01:30:00.859Z,10.2
2023-04-26T01:31:00.666Z,10.2
2023-04-26T01:32:00.627Z,10.2
2023-04-26T01:33:00.722Z,12.3
2023-04-26T01:34:00.610Z,12.3
2023-04-26T01:35:01.118Z,12.3
2023-04-26T01:36:00.748Z,12.3
2023-04-26T01:37:00.632Z,12.3
2023-04-26T01:38:00.620Z,13.6
2023-04-26T01:39:00.715Z,13.6
2023-04-26T01:40:00.766Z,13.6
2023-04-26T01:41:00.618Z,13.6
2023-04-26T01:42:00.669Z,13.6
2023-04-26T01:43:00.642Z,12.1
2023-04-26T01:44:00.605Z,12.1
2023-04-26T01:45:00.666Z,12.1
2023-04-26T01:46:00.687Z,12.1
2023-04-26T01:47:00.634Z,12.1
2023-04-26T01:48:00.678Z,11.3
2023-04-26T01:49:00.695Z,11.3
2023-04-26T01:50:00.630Z,11.3
2023-04-26T01:51:00.645Z,11.3
2023-04-26T01:52:01.205Z,11.3
2023-04-26T01:53:00.625Z,13.2
2023-04-26T01:54:01.402Z,13.2
2023-04-26T01:55:00.624Z,13.2
2023-04-26T01:56:01.462Z,13.2
2023-04-26T01:57:00.630Z,13.2
2023-04-26T01:58:00.924Z,11.4
2023-04-26T01:59:00.633Z,11.4
2023-04-26T02:00:00.774Z,11.4
2023-04-26T02:01:05.542Z,11.4
2023-04-26T02:02:01.009Z,11.4
2023-04-26T02:03:00.715Z,9.2
2023-04-26T02:04:00.591Z,9.2
2023-04-26T02:05:00.666Z,9.2
2023-04-26T02:06:01.252Z,9.2
2023-04-26T02:07:00.630Z,9.2
2023-04-26T02:08:00.615Z,9.2
2023-04-26T02:09:00.609Z,9.2
2023-04-26T02:10:00.669Z,9.2
2023-04-26T02:11:00.632Z,9.2
2023-04-26T02:12:00.666Z,9.2
2023-04-26T02:13:00.631Z,12.2
2023-04-26T02:14:00.821Z,12.2
2023-04-26T02:15:00.602Z,12.2
2023-04-26T02:16:00.693Z,12.2
2023-04-26T02:17:00.602Z,12.2
2023-04-26T02:18:00.695Z,8.7
2023-04-26T02:19:00.683Z,8.7
2023-04-26T02:20:00.626Z,8.7
2023-04-26T02:21:00.613Z,8.7
2023-04-26T02:22:00.660Z,8.7
2023-04-26T02:23:00.615Z,12.9
2023-04-26T02:24:00.654Z,12.9
2023-04-26T02:25:00.633Z,12.9
2023-04-26T02:26:00.603Z,12.9
2023-04-26T02:27:00.624Z,12.9
2023-04-26T02:28:00.644Z,9.0
2023-04-26T02:29:00.621Z,9.0
2023-04-26T02:30:00.656Z,9.0
2023-04-26T02:31:01.299Z,9.0
2023-04-26T02:32:00.664Z,9.0
2023-04-26T02:33:00.660Z,11.0
2023-04-26T02:34:00.602Z,11.0
2023-04-26T02:35:02.203Z,11.0
2023-04-26T02:36:03.237Z,11.0
2023-04-26T02:37:00.639Z,11.0
2023-04-26T02:38:00.624Z,10.2
2023-04-26T02:39:00.724Z,10.2
2023-04-26T02:40:00.643Z,10.2
2023-04-26T02:41:01.944Z,10.2
2023-04-26T02:42:00.631Z,10.2
2023-04-26T02:43:00.649Z,10.4
2023-04-26T02:44:00.622Z,10.4
2023-04-26T02:45:00.630Z,10.4
2023-04-26T02:46:00.658Z,10.4
2023-04-26T02:47:01.727Z,10.4
2023-04-26T02:48:00.657Z,10.4
2023-04-26T02:49:00.597Z,10.4
2023-04-26T02:50:00.616Z,10.4
2023-04-26T02:51:00.625Z,10.4
2023-04-26T02:52:00.757Z,10.4
2023-04-26T02:53:00.625Z,10.6
2023-04-26T02:54:00.675Z,10.6
2023-04-26T02:55:01.900Z,10.6
2023-04-26T02:56:00.636Z,10.6
2023-04-26T02:57:00.810Z,10.6
2023-04-26T02:58:00.610Z,10.4
2023-04-26T02:59:00.595Z,10.4
2023-04-26T03:00:00.620Z,10.4
2023-04-26T03:01:01.590Z,10.4
2023-04-26T03:02:00.621Z,10.4
2023-04-26T03:03:00.870Z,10.8
2023-04-26T03:04:00.676Z,10.8
2023-04-26T03:05:00.640Z,10.8
2023-04-26T03:06:00.625Z,10.8
2023-04-26T03:07:02.242Z,10.8
2023-04-26T03:08:00.621Z,11.7
2023-04-26T03:09:00.648Z,11.7
2023-04-26T03:10:00.598Z,11.7
2023-04-26T03:11:00.607Z,11.7
2023-04-26T03:12:00.597Z,11.7
2023-04-26T03:13:00.629Z,14.7
2023-04-26T03:14:00.611Z,14.7
2023-04-26T03:15:00.624Z,14.7
2023-04-26T03:16:00.671Z,14.7
2023-04-26T03:17:01.011Z,14.7
2023-04-26T03:18:00.683Z,9.2
2023-04-26T03:19:00.625Z,9.2
2023-04-26T03:20:02.952Z,9.2
2023-04-26T03:21:00.639Z,9.2
2023-04-26T03:22:00.677Z,9.2
2023-04-26T03:23:00.599Z,9.6
2023-04-26T03:24:00.678Z,9.6
2023-04-26T03:25:00.648Z,9.6
2023-04-26T03:26:00.631Z,9.6
2023-04-26T03:27:00.638Z,9.6
2023-04-26T03:28:00.610Z,8.8
2023-04-26T03:29:00.950Z,8.8
2023-04-26T03:30:00.642Z,8.8
2023-04-26T03:31:00.649Z,8.8
2023-04-26T03:32:00.738Z,8.8
2023-04-26T03:33:00.713Z,8.3
2023-04-26T03:34:00.611Z,8.3
2023-04-26T03:35:00.692Z,8.3
2023-04-26T03:36:00.614Z,8.3
2023-04-26T03:37:01.132Z,8.3
2023-04-26T03:38:00.660Z,7.3
2023-04-26T03:39:00.644Z,7.3
2023-04-26T03:40:00.609Z,7.3
2023-04-26T03:41:00.631Z,7.3
2023-04-26T03:42:00.670Z,7.3
2023-04-26T03:43:00.612Z,9.1
2023-04-26T03:44:00.628Z,9.1
2023-04-26T03:45:00.682Z,9.1
2023-04-26T03:46:00.640Z,9.1
2023-04-26T03:47:00.607Z,9.1
2023-04-26T03:48:00.676Z,8.8
2023-04-26T03:49:00.610Z,8.8
2023-04-26T03:50:00.632Z,8.8
2023-04-26T03:51:01.198Z,8.8
2023-04-26T03:52:00.775Z,8.8
2023-04-26T03:53:00.646Z,6.5
2023-04-26T03:54:00.630Z,6.5
2023-04-26T03:55:00.811Z,6.5
2023-04-26T03:56:00.642Z,6.5
2023-04-26T03:57:00.646Z,6.5
2023-04-26T03:58:00.614Z,8.7
2023-04-26T03:59:00.633Z,8.7
2023-04-26T04:00:00.830Z,8.7
2023-04-26T04:01:00.634Z,8.7
2023-04-26T04:02:00.645Z,8.7
2023-04-26T04:03:00.830Z,9.5
2023-04-26T04:04:01.017Z,9.5
2023-04-26T04:05:00.884Z,9.5
2023-04-26T04:06:00.621Z,9.5
2023-04-26T04:07:00.628Z,9.5
2023-04-26T04:08:00.999Z,9.2
2023-04-26T04:09:00.622Z,9.2
2023-04-26T04:10:00.751Z,9.2
2023-04-26T04:11:00.617Z,9.2
2023-04-26T04:12:00.630Z,9.2
2023-04-26T04:13:00.658Z,9.1
2023-04-26T04:14:00.658Z,9.1
2023-04-26T04:15:00.948Z,9.1
2023-04-26T04:16:00.654Z,9.1
2023-04-26T04:17:00.615Z,7.7
2023-04-26T04:18:00.683Z,7.7
2023-04-26T04:19:00.608Z,7.7
2023-04-26T04:20:01.601Z,7.7
2023-04-26T04:21:00.658Z,7.7
2023-04-26T04:22:00.601Z,9.2
2023-04-26T04:23:00.656Z,9.2
2023-04-26T04:24:00.623Z,9.2
2023-04-26T04:25:00.755Z,9.2
2023-04-26T04:26:00.636Z,9.2
2023-04-26T04:27:00.613Z,11.3
2023-04-26T04:28:01.476Z,11.3
2023-04-26T04:29:00.610Z,11.3
2023-04-26T04:30:00.712Z,11.3
2023-04-26T04:31:00.624Z,11.3
2023-04-26T04:32:00.646Z,9.8
2023-04-26T04:33:00.732Z,9.8
2023-04-26T04:34:00.617Z,9.8
2023-04-26T04:35:00.836Z,9.8
2023-04-26T04:36:00.693Z,9.8
2023-04-26T04:37:00.829Z,8.2
2023-04-26T04:38:00.630Z,8.2
2023-04-26T04:39:00.681Z,8.2
2023-04-26T04:40:00.784Z,8.2
2023-04-26T04:41:00.628Z,8.2
2023-04-26T04:42:00.642Z,9.3
2023-04-26T04:43:00.624Z,9.3
2023-04-26T04:44:00.602Z,9.3
2023-04-26T04:45:00.604Z,9.3
2023-04-26T04:46:00.680Z,9.3
2023-04-26T04:47:00.736Z,10.6
2023-04-26T04:48:00.637Z,10.6
2023-04-26T04:49:00.690Z,10.6
2023-04-26T04:50:00.666Z,10.6
2023-04-26T04:51:00.594Z,10.6
2023-04-26T04:52:00.609Z,19.7
2023-04-26T04:53:00.737Z,19.7
2023-04-26T04:54:12.546Z,19.7
2023-04-26T04:55:00.605Z,19.7
2023-04-26T04:56:00.670Z,19.7
2023-04-26T04:57:00.705Z,15.3
2023-04-26T04:58:00.694Z,15.3
2023-04-26T04:59:00.612Z,15.3
2023-04-26T05:00:00.639Z,15.3
2023-04-26T05:01:00.621Z,15.3
2023-04-26T05:02:00.624Z,8.6
2023-04-26T05:03:00.836Z,8.6
2023-04-26T05:04:00.806Z,8.6
2023-04-26T05:05:00.648Z,8.6
2023-04-26T05:06:00.644Z,8.6
2023-04-26T05:07:00.621Z,8.0
2023-04-26T05:08:00.607Z,8.0
2023-04-26T05:09:00.772Z,8.0
2023-04-26T05:10:00.768Z,8.0
2023-04-26T05:11:00.614Z,8.0
2023-04-26T05:12:00.652Z,8.4
2023-04-26T05:13:00.820Z,8.4
2023-04-26T05:14:00.728Z,8.4
2023-04-26T05:15:00.620Z,8.4
2023-04-26T05:16:00.670Z,8.4
2023-04-26T05:17:00.606Z,8.5
2023-04-26T05:18:00.734Z,8.5
2023-04-26T05:19:00.604Z,8.5
2023-04-26T05:20:00.652Z,8.5
2023-04-26T05:21:00.621Z,8.5
2023-04-26T05:22:00.629Z,12.3
2023-04-26T05:23:00.617Z,12.3
2023-04-26T05:24:00.642Z,12.3
2023-04-26T05:25:00.692Z,12.3
2023-04-26T05:26:01.346Z,12.3
2023-04-26T05:27:01.788Z,8.5
2023-04-26T05:28:00.663Z,8.5
2023-04-26T05:29:00.604Z,8.5
2023-04-26T05:30:00.654Z,8.5
2023-04-26T05:31:00.652Z,8.5
2023-04-26T05:32:00.691Z,8.7
2023-04-26T05:33:00.660Z,8.7
2023-04-26T05:34:00.649Z,8.7
2023-04-26T05:35:00.629Z,8.7
2023-04-26T05:36:00.933Z,8.7
2023-04-26T05:37:00.718Z,7.9
2023-04-26T05:38:00.634Z,7.9
2023-04-26T05:39:00.628Z,7.9
2023-04-26T05:40:00.749Z,7.9
2023-04-26T05:41:00.648Z,7.9
2023-04-26T05:42:00.682Z,7.9
2023-04-26T05:43:00.621Z,7.9
2023-04-26T05:44:00.622Z,7.9
2023-04-26T05:45:00.743Z,7.9
2023-04-26T05:46:00.735Z,7.9
2023-04-26T05:47:00.619Z,7.5
2023-04-26T05:48:00.717Z,7.5
2023-04-26T05:49:00.646Z,7.5
2023-04-26T05:50:00.812Z,7.5
2023-04-26T05:51:01.116Z,7.5
2023-04-26T05:52:00.930Z,6.8
2023-04-26T05:53:00.626Z,6.8
2023-04-26T05:54:00.632Z,6.8
2023-04-26T05:55:00.724Z,6.8
2023-04-26T05:56:00.608Z,6.8
2023-04-26T05:57:00.685Z,7.1
2023-04-26T05:58:00.606Z,7.1
2023-04-26T05:59:00.612Z,7.1
2023-04-26T06:00:01.979Z,7.1
2023-04-26T06:01:00.613Z,7.1
2023-04-26T06:02:00.662Z,8.2
2023-04-26T06:03:00.912Z,8.2
2023-04-26T06:04:01.721Z,8.2
2023-04-26T06:05:00.977Z,8.2
2023-04-26T06:06:00.761Z,8.2
2023-04-26T06:07:00.606Z,6.1
2023-04-26T06:08:00.618Z,6.1
2023-04-26T06:09:00.627Z,6.1
2023-04-26T06:10:00.613Z,6.1
2023-04-26T06:11:00.602Z,6.1
2023-04-26T06:12:00.659Z,7.0
2023-04-26T06:13:00.618Z,7.0
2023-04-26T06:14:00.686Z,7.0
2023-04-26T06:15:00.619Z,7.0
2023-04-26T06:16:00.636Z,7.0
2023-04-26T06:17:00.675Z,10.3
2023-04-26T06:18:00.702Z,10.3
2023-04-26T06:19:00.629Z,10.3
2023-04-26T06:20:00.875Z,10.3
2023-04-26T06:21:00.671Z,10.3
2023-04-26T06:22:00.603Z,6.5
2023-04-26T06:23:00.656Z,6.5
2023-04-26T06:24:00.631Z,6.5
2023-04-26T06:25:00.616Z,6.5
2023-04-26T06:26:00.645Z,6.5
2023-04-26T06:27:00.612Z,7.0
2023-04-26T06:28:00.669Z,7.0
2023-04-26T06:29:00.608Z,7.0
2023-04-26T06:30:00.792Z,7.0
2023-04-26T06:31:00.682Z,7.0
2023-04-26T06:32:00.731Z,7.1
2023-04-26T06:33:00.697Z,7.1
2023-04-26T06:34:00.613Z,7.1
2023-04-26T06:35:00.684Z,7.1
2023-04-26T06:36:00.631Z,7.1
2023-04-26T06:37:00.626Z,11.8
2023-04-26T06:38:00.611Z,11.8
2023-04-26T06:39:00.623Z,11.8
2023-04-26T06:40:00.621Z,11.8
2023-04-26T06:41:00.612Z,11.8
2023-04-26T06:42:00.633Z,8.1
2023-04-26T06:43:00.686Z,8.1
2023-04-26T06:44:00.627Z,8.1
2023-04-26T06:45:00.626Z,8.1
2023-04-26T06:46:00.685Z,8.1
2023-04-26T06:47:00.687Z,7.5
2023-04-26T06:48:00.911Z,7.5
2023-04-26T06:49:00.672Z,7.5
2023-04-26T06:50:01.637Z,7.5
2023-04-26T06:51:05.650Z,7.5
2023-04-26T06:52:00.739Z,7.1
2023-04-26T06:53:00.631Z,7.1
2023-04-26T06:54:00.621Z,7.1
2023-04-26T06:55:01.406Z,7.1
2023-04-26T06:56:00.634Z,7.1
2023-04-26T06:57:01.554Z,12.4
2023-04-26T06:58:00.696Z,12.4
2023-04-26T06:59:02.955Z,12.4
2023-04-26T07:00:00.672Z,12.4
2023-04-26T07:01:00.605Z,12.4
2023-04-26T07:02:00.659Z,10.9
2023-04-26T07:03:00.713Z,10.9
2023-04-26T07:04:01.650Z,10.9
2023-04-26T07:05:00.863Z,10.9
2023-04-26T07:06:01.633Z,10.9
2023-04-26T07:07:00.862Z,8.5
2023-04-26T07:08:00.620Z,8.5
2023-04-26T07:09:01.359Z,8.5
2023-04-26T07:10:00.670Z,8.5
2023-04-26T07:11:00.610Z,8.5
2023-04-26T07:12:00.628Z,6.3
2023-04-26T07:13:00.615Z,6.3
2023-04-26T07:14:00.628Z,6.3
2023-04-26T07:15:00.756Z,6.3
2023-04-26T07:16:00.682Z,6.3
2023-04-26T07:17:00.622Z,11.2
2023-04-26T07:18:00.728Z,11.2
2023-04-26T07:19:00.864Z,11.2
2023-04-26T07:20:00.625Z,11.2
2023-04-26T07:21:00.654Z,11.2
2023-04-26T07:22:00.897Z,9.4
2023-04-26T07:23:00.622Z,9.4
2023-04-26T07:24:00.717Z,9.4
2023-04-26T07:25:00.663Z,9.4
2023-04-26T07:26:00.653Z,9.4
2023-04-26T07:27:00.780Z,11.3
2023-04-26T07:28:00.621Z,11.3
2023-04-26T07:29:00.626Z,11.3
2023-04-26T07:30:00.633Z,11.3
2023-04-26T07:31:00.645Z,11.3
2023-04-26T07:32:00.774Z,8.2
2023-04-26T07:33:00.742Z,8.2
2023-04-26T07:34:00.645Z,8.2
2023-04-26T07:35:04.885Z,8.2
2023-04-26T07:36:00.611Z,8.2
2023-04-26T07:37:00.624Z,6.8
2023-04-26T07:38:00.884Z,6.8
2023-04-26T07:39:00.606Z,6.8
2023-04-26T07:40:00.695Z,6.8
2023-04-26T07:41:00.776Z,6.8
2023-04-26T07:42:00.606Z,11.0
2023-04-26T07:43:00.875Z,11.0
2023-04-26T07:44:00.682Z,11.0
2023-04-26T07:45:00.712Z,11.0
2023-04-26T07:46:01.377Z,11.0
2023-04-26T07:47:00.621Z,10.0
2023-04-26T07:48:00.640Z,10.0
2023-04-26T07:49:00.703Z,10.0
2023-04-26T07:50:00.682Z,10.0
2023-04-26T07:51:09.976Z,10.0
2023-04-26T07:52:00.613Z,12.9
2023-04-26T07:53:00.623Z,12.9
2023-04-26T07:54:00.674Z,12.9
2023-04-26T07:55:00.684Z,12.9
2023-04-26T07:56:03.171Z,12.9
2023-04-26T07:57:00.607Z,6.8
2023-04-26T07:58:00.655Z,6.8
2023-04-26T07:59:00.624Z,6.8
2023-04-26T08:00:00.623Z,6.8
2023-04-26T08:01:01.400Z,6.8
2023-04-26T08:02:00.633Z,5.3
2023-04-26T08:03:00.753Z,5.3
2023-04-26T08:04:01.120Z,5.3
2023-04-26T08:05:00.954Z,5.3
2023-04-26T08:06:00.807Z,5.3
2023-04-26T08:07:01.042Z,8.7
2023-04-26T08:08:01.131Z,8.7
2023-04-26T08:09:00.624Z,8.7
2023-04-26T08:10:00.627Z,8.7
2023-04-26T08:11:00.613Z,8.7
2023-04-26T08:12:03.450Z,41.0
2023-04-26T08:13:00.612Z,41.0
2023-04-26T08:14:00.616Z,41.0
2023-04-26T08:15:00.995Z,41.0
2023-04-26T08:16:00.732Z,41.0
2023-04-26T08:17:00.658Z,57.5
2023-04-26T08:18:00.684Z,57.5
2023-04-26T08:19:00.619Z,57.5
2023-04-26T08:20:00.654Z,57.5
2023-04-26T08:21:01.128Z,57.5
2023-04-26T08:22:00.876Z,8.9
2023-04-26T08:23:00.684Z,8.9
2023-04-26T08:24:00.620Z,8.9
2023-04-26T08:25:01.079Z,8.9
2023-04-26T08:26:00.800Z,8.9
2023-04-26T08:27:00.690Z,9.5
2023-04-26T08:28:01.046Z,9.5
2023-04-26T08:29:00.649Z,9.5
2023-04-26T08:30:00.602Z,9.5
2023-04-26T08:31:00.633Z,9.5
2023-04-26T08:32:00.627Z,30.0
2023-04-26T08:33:00.776Z,30.0
2023-04-26T08:34:00.640Z,30.0
2023-04-26T08:35:00.612Z,30.0
2023-04-26T08:36:00.608Z,30.0
2023-04-26T08:37:00.641Z,15.2
2023-04-26T08:38:00.687Z,15.2
2023-04-26T08:39:00.620Z,15.2
2023-04-26T08:40:00.787Z,15.2
2023-04-26T08:41:01.441Z,15.2
2023-04-26T08:42:05.868Z,11.8
2023-04-26T08:43:00.622Z,11.8
2023-04-26T08:44:01.277Z,11.8
2023-04-26T08:45:00.613Z,11.8
2023-04-26T08:46:01.547Z,11.8
2023-04-26T08:47:13.746Z,9.0
2023-04-26T08:48:07.850Z,9.0
2023-04-26T08:49:16.391Z,9.0
2023-04-26T08:50:01.406Z,9.0
2023-04-26T08:51:00.871Z,9.0
2023-04-26T08:52:02.980Z,9.6
2023-04-26T08:53:00.662Z,9.6
2023-04-26T08:54:04.844Z,9.6
2023-04-26T08:55:03.939Z,9.6
2023-04-26T08:56:01.409Z,9.6
2023-04-26T08:57:01.079Z,20.5
2023-04-26T08:58:01.323Z,20.5
2023-04-26T08:59:00.816Z,20.5
2023-04-26T09:00:02.760Z,20.5
2023-04-26T09:01:01.605Z,20.5
2023-04-26T09:02:01.036Z,9.5
2023-04-26T09:03:00.817Z,9.5
2023-04-26T09:04:01.421Z,9.5
2023-04-26T09:05:00.976Z,9.5
2023-04-26T09:06:03.810Z,9.5
2023-04-26T09:07:02.842Z,13.7
2023-04-26T09:08:01.263Z,13.7
2023-04-26T09:09:02.546Z,13.7
2023-04-26T09:10:03.841Z,13.7
2023-04-26T09:11:02.359Z,13.7
2023-04-26T09:12:00.658Z,13.8
2023-04-26T09:13:00.645Z,13.8
2023-04-26T09:14:00.661Z,13.8
2023-04-26T09:15:00.792Z,13.8
2023-04-26T09:16:02.708Z,13.8
2023-04-26T09:17:00.879Z,6.9
2023-04-26T09:18:18.758Z,6.9
2023-04-26T09:19:00.617Z,6.9
2023-04-26T09:20:11.360Z,6.9
2023-04-26T09:21:02.772Z,6.9
2023-04-26T09:22:00.715Z,7.6
2023-04-26T09:23:04.845Z,7.6
2023-04-26T09:24:00.774Z,7.6
2023-04-26T09:25:03.330Z,7.6
2023-04-26T09:26:20.628Z,7.6
2023-04-26T09:27:01.487Z,7.4
2023-04-26T09:28:02.240Z,7.4
2023-04-26T09:29:14.856Z,7.4
2023-04-26T09:30:07.829Z,7.4
2023-04-26T09:31:00.647Z,7.4
2023-04-26T09:32:00.650Z,20.7
2023-04-26T09:33:02.351Z,20.7
2023-04-26T09:34:00.640Z,20.7
2023-04-26T09:35:00.663Z,20.7
2023-04-26T09:36:11.147Z,20.7
2023-04-26T09:37:00.624Z,28.7
2023-04-26T09:38:13.271Z,28.7
2023-04-26T09:39:00.624Z,28.7
2023-04-26T09:40:00.613Z,28.7
2023-04-26T09:41:00.619Z,28.7
2023-04-26T09:42:00.630Z,23.8
2023-04-26T09:43:03.764Z,23.8
2023-04-26T09:44:00.763Z,23.8
2023-04-26T09:45:08.093Z,23.8
2023-04-26T09:46:00.621Z,23.8
2023-04-26T09:47:05.849Z,8.9
2023-04-26T09:48:12.417Z,8.9
2023-04-26T09:49:00.898Z,8.9
2023-04-26T09:50:00.612Z,8.9
2023-04-26T09:51:01.606Z,8.9
2023-04-26T09:52:04.178Z,27.6
2023-04-26T09:53:00.631Z,27.6
2023-04-26T09:54:00.603Z,27.6
2023-04-26T09:55:00.688Z,27.6
2023-04-26T09:56:09.703Z,27.6
2023-04-26T09:57:00.832Z,59.8
2023-04-26T09:58:07.030Z,59.8
2023-04-26T09:59:00.648Z,59.8
2023-04-26T10:00:08.085Z,59.8
2023-04-26T10:01:02.994Z,59.8
2023-04-26T10:02:01.100Z,13.2
2023-04-26T10:03:01.681Z,13.2
2023-04-26T10:04:00.896Z,13.2
2023-04-26T10:05:00.954Z,13.2
2023-04-26T10:06:00.727Z,13.2
2023-04-26T10:07:00.966Z,12.4
2023-04-26T10:08:01.608Z,12.4
2023-04-26T10:09:01.451Z,12.4
2023-04-26T10:10:00.966Z,12.4
2023-04-26T10:11:03.197Z,12.4
2023-04-26T10:12:00.748Z,14.7
2023-04-26T10:13:00.634Z,14.7
2023-04-26T10:14:00.691Z,14.7
2023-04-26T10:15:02.959Z,14.7
2023-04-26T10:16:01.395Z,14.7
2023-04-26T10:17:02.750Z,19.1
2023-04-26T10:18:00.719Z,19.1
2023-04-26T10:19:00.697Z,19.1
2023-04-26T10:20:01.873Z,19.1
2023-04-26T10:21:07.345Z,19.1
2023-04-26T10:22:13.637Z,15.2
2023-04-26T10:23:00.976Z,15.2
2023-04-26T10:24:00.968Z,15.2
2023-04-26T10:25:00.642Z,15.2
2023-04-26T10:26:00.650Z,15.2
2023-04-26T10:27:00.874Z,5.0
2023-04-26T10:28:00.674Z,5.0
2023-04-26T10:29:02.553Z,5.0
2023-04-26T10:30:01.603Z,5.0
2023-04-26T10:31:00.631Z,5.0
2023-04-26T10:32:00.637Z,11.2
2023-04-26T10:33:00.671Z,11.2
2023-04-26T10:34:18.949Z,11.2
2023-04-26T10:35:11.424Z,11.2
2023-04-26T10:36:10.393Z,11.2
2023-04-26T10:37:08.741Z,6.9
2023-04-26T10:38:00.650Z,6.9
2023-04-26T10:39:19.248Z,6.9
2023-04-26T10:40:20.530Z,6.9
2023-04-26T10:41:20.534Z,6.9
2023-04-26T10:42:21.873Z,5.3
2023-04-26T10:43:07.971Z,5.3
2023-04-26T10:44:20.565Z,5.3
2023-04-26T10:45:20.535Z,5.3
2023-04-26T10:46:20.583Z,5.3
2023-04-26T10:47:00.615Z,6.5
2023-04-26T10:48:14.438Z,6.5
2023-04-26T10:49:12.275Z,6.5
2023-04-26T10:50:03.657Z,6.5
2023-04-26T10:51:00.595Z,6.5
2023-04-26T10:52:11.703Z,7.1
2023-04-26T10:53:01.617Z,7.1
2023-04-26T10:54:00.738Z,7.1
2023-04-26T10:55:00.869Z,7.1
2023-04-26T10:56:00.711Z,7.1
2023-04-26T10:57:00.708Z,6.1
2023-04-26T10:58:00.598Z,6.1
2023-04-26T10:59:33.331Z,6.1
2023-04-26T11:00:08.102Z,6.1
2023-04-26T11:01:08.064Z,6.1
2023-04-26T11:02:00.624Z,5.2
2023-04-26T11:03:03.376Z,5.2
2023-04-26T11:04:05.962Z,5.2
2023-04-26T11:05:01.615Z,5.2
2023-04-26T11:06:05.407Z,5.2
2023-04-26T11:07:02.019Z,9.5
2023-04-26T11:08:04.377Z,9.5
2023-04-26T11:09:00.660Z,9.5
2023-04-26T11:10:00.665Z,9.5
2023-04-26T11:11:04.875Z,9.5
2023-04-26T11:12:02.554Z,5.8
2023-04-26T11:13:02.049Z,5.8
2023-04-26T11:14:00.790Z,5.8
2023-04-26T11:15:00.658Z,5.8
2023-04-26T11:16:02.386Z,5.8
2023-04-26T11:17:02.493Z,17.8
2023-04-26T11:18:03.055Z,17.8
2023-04-26T11:19:00.671Z,17.8
2023-04-26T11:20:03.657Z,17.8
2023-04-26T11:21:01.049Z,17.8
2023-04-26T11:22:02.078Z,8.1
2023-04-26T11:23:00.954Z,8.1
2023-04-26T11:24:00.645Z,8.1
2023-04-26T11:25:00.729Z,8.1
2023-04-26T11:26:03.338Z,8.1
2023-04-26T11:27:00.760Z,7.5
2023-04-26T11:28:02.176Z,7.5
2023-04-26T11:29:00.620Z,7.5
2023-04-26T11:30:02.822Z,7.5
2023-04-26T11:31:01.630Z,7.5
2023-04-26T11:32:01.063Z,9.5
2023-04-26T11:33:02.845Z,9.5
2023-04-26T11:34:04.006Z,9.5
2023-04-26T11:35:00.654Z,9.5
2023-04-26T11:36:01.134Z,9.5
2023-04-26T11:37:02.083Z,10.3
2023-04-26T11:38:03.303Z,10.3
2023-04-26T11:39:00.678Z,10.3
2023-04-26T11:40:00.624Z,10.3
2023-04-26T11:41:02.621Z,10.3
2023-04-26T11:42:05.961Z,6.9
2023-04-26T11:43:04.494Z,6.9
2023-04-26T11:44:00.729Z,6.9
2023-04-26T11:45:00.691Z,6.9
2023-04-26T11:46:01.536Z,6.9
2023-04-26T11:47:01.504Z,8.5
2023-04-26T11:48:03.217Z,8.5
2023-04-26T11:49:00.864Z,8.5
2023-04-26T11:50:01.023Z,8.5
2023-04-26T11:51:02.719Z,8.5
2023-04-26T11:52:02.175Z,6.3
2023-04-26T11:53:03.051Z,6.3
2023-04-26T11:54:00.676Z,6.3
2023-04-26T11:55:03.645Z,6.3
2023-04-26T11:56:00.709Z,6.3
2023-04-26T11:57:12.797Z,7.0
2023-04-26T11:58:07.923Z,7.0
2023-04-26T11:59:00.670Z,7.0
2023-04-26T12:00:11.542Z,7.0
2023-04-26T12:01:01.243Z,7.0
2023-04-26T12:02:05.010Z,6.9
2023-04-26T12:03:04.673Z,6.9
2023-04-26T12:04:00.850Z,6.9
2023-04-26T12:05:00.789Z,6.9
2023-04-26T12:06:00.613Z,6.9
2023-04-26T12:07:03.363Z,5.1
2023-04-26T12:08:00.643Z,5.1
2023-04-26T12:09:01.580Z,5.1
2023-04-26T12:10:14.813Z,5.1
2023-04-26T12:11:01.613Z,5.1
2023-04-26T12:12:02.081Z,11.0
2023-04-26T12:13:01.214Z,11.0
2023-04-26T12:14:01.367Z,11.0
2023-04-26T12:15:07.737Z,11.0
2023-04-26T12:16:15.191Z,11.0
2023-04-26T12:17:02.010Z,10.7
2023-04-26T12:18:09.644Z,10.7
2023-04-26T12:19:03.922Z,10.7
2023-04-26T12:20:08.309Z,10.7
2023-04-26T12:21:00.654Z,10.7
2023-04-26T12:22:00.793Z,7.9
2023-04-26T12:23:03.198Z,7.9
2023-04-26T12:24:00.663Z,7.9
2023-04-26T12:25:05.406Z,7.9
2023-04-26T12:26:00.655Z,7.9
2023-04-26T12:27:02.500Z,34.3
2023-04-26T12:28:02.544Z,34.3
2023-04-26T12:29:00.629Z,34.3
2023-04-26T12:30:00.720Z,34.3
2023-04-26T12:31:00.631Z,34.3
2023-04-26T12:32:01.418Z,6.8
2023-04-26T12:33:15.594Z,6.8
2023-04-26T12:34:00.604Z,6.8
2023-04-26T12:35:00.629Z,6.8
2023-04-26T12:36:09.533Z,6.8
2023-04-26T12:37:00.613Z,10.1
2023-04-26T12:38:00.750Z,10.1
2023-04-26T12:39:00.635Z,10.1
2023-04-26T12:40:00.725Z,10.1
2023-04-26T12:41:00.766Z,10.1
2023-04-26T12:42:00.614Z,8.4
2023-04-26T12:43:00.619Z,8.4
2023-04-26T12:44:00.662Z,8.4
2023-04-26T12:45:00.717Z,8.4
2023-04-26T12:46:00.730Z,8.4
2023-04-26T12:47:00.679Z,7.4
2023-04-26T12:48:00.777Z,7.4
2023-04-26T12:49:00.960Z,7.4
2023-04-26T12:50:00.653Z,7.4
2023-04-26T12:51:00.641Z,7.4
2023-04-26T12:52:00.701Z,12.1
2023-04-26T12:53:00.658Z,12.1
2023-04-26T12:54:00.626Z,12.1
2023-04-26T12:55:00.646Z,12.1
2023-04-26T12:56:00.632Z,12.1
2023-04-26T12:57:00.640Z,6.3
2023-04-26T12:58:00.639Z,6.3
2023-04-26T12:59:00.715Z,6.3
2023-04-26T13:00:00.682Z,6.3
2023-04-26T13:01:00.721Z,6.3
2023-04-26T13:02:00.734Z,7.2
2023-04-26T13:03:00.769Z,7.2
2023-04-26T13:04:01.034Z,7.2
2023-04-26T13:05:01.613Z,7.2
2023-04-26T13:06:00.679Z,7.2
2023-04-26T13:07:01.015Z,9.3
2023-04-26T13:08:00.632Z,9.3
2023-04-26T13:09:00.630Z,9.3
2023-04-26T13:10:01.578Z,9.3
2023-04-26T13:11:00.619Z,9.3
2023-04-26T13:12:00.636Z,8.8
2023-04-26T13:13:00.638Z,8.8
2023-04-26T13:14:00.638Z,8.8
2023-04-26T13:15:00.647Z,8.8
2023-04-26T13:16:00.727Z,8.8
2023-04-26T13:17:00.630Z,9.5
2023-04-26T13:18:00.671Z,9.5
2023-04-26T13:19:00.659Z,9.5
2023-04-26T13:20:01.352Z,9.5
2023-04-26T13:21:00.608Z,9.5
2023-04-26T13:22:02.486Z,8.0
2023-04-26T13:23:00.619Z,8.0
2023-04-26T13:24:00.646Z,8.0
2023-04-26T13:25:00.789Z,8.0
2023-04-26T13:26:00.613Z,8.0
2023-04-26T13:27:00.796Z,12.6
2023-04-26T13:28:00.660Z,12.6
2023-04-26T13:29:00.622Z,12.6
2023-04-26T13:30:00.657Z,12.6
2023-04-26T13:31:00.687Z,12.6
2023-04-26T13:32:00.817Z,6.2